Time;durP1;ratioP1;P1;durP2;ratioP2;P2;SDS_P1;SDS_P2;PMS_P1;PMS_P2;Temp;Humidity;BMP_temperature;BMP_pressure;BME280_temperature;BME280_humidity;BME280_pressure;Samples;Min_cycle;Max_cycle;Signal;HPM_P1;HPM_P2
2021/01/26 00:00:45;;;;;;;16.10;9.30;;;;;;;3.35;59.37;98743.16;4424099;32;20150;-87
2021/01/26 00:03:10;;;;;;;16.23;8.40;;;;;;;3.15;59.35;98750.37;4424406;32;20900;-88
2021/01/26 00:05:35;;;;;;;17.35;8.73;;;;;;;3.24;59.35;98745.06;4424368;32;20125;-93
2021/01/26 00:08:01;;;;;;;16.20;8.35;;;;;;;3.13;59.35;98745.28;4411319;32;27315;-90
2021/01/26 00:10:26;;;;;;;14.65;7.53;;;;;;;3.22;59.35;98741.66;4411948;32;20208;-89
2021/01/26 00:12:52;;;;;;;15.52;7.93;;;;;;;3.27;59.36;98742.44;4412176;32;20195;-90
2021/01/26 00:15:17;;;;;;;16.17;7.60;;;;;;;3.07;59.34;98742.78;4412281;32;20212;-89
2021/01/26 00:17:42;;;;;;;13.55;7.62;;;;;;;3.21;59.35;98756.25;4411943;32;20520;-90
2021/01/26 00:20:10;;;;;;;13.77;7.35;;;;;;;3.28;59.36;98750.13;4411017;32;31057;-88
2021/01/26 00:22:35;;;;;;;14.63;6.75;;;;;;;3.30;59.35;98756.06;4411948;32;20583;-89
2021/01/26 00:25:02;;;;;;;15.77;7.43;;;;;;;3.35;59.37;98750.87;4424491;32;20116;-89
2021/01/26 00:27:28;;;;;;;11.65;6.10;;;;;;;3.35;59.36;98749.16;4411647;32;20589;-90
2021/01/26 00:29:53;;;;;;;12.23;6.68;;;;;;;3.36;59.36;98750.84;4424327;32;20128;-89
2021/01/26 00:32:19;;;;;;;16.60;7.60;;;;;;;3.30;59.35;98748.34;4411525;32;20157;-89
2021/01/26 00:34:44;;;;;;;11.38;6.47;;;;;;;3.21;59.36;98750.28;4411091;32;20168;-90
2021/01/26 00:37:09;;;;;;;15.15;7.55;;;;;;;3.25;59.36;98757.03;4411212;32;20126;-89
2021/01/26 00:39:35;;;;;;;14.57;6.65;;;;;;;3.26;59.36;98761.31;4411364;32;20139;-89
2021/01/26 00:42:00;;;;;;;10.20;5.80;;;;;;;3.01;59.34;98759.19;4410881;32;24228;-89
2021/01/26 00:44:26;;;;;;;14.35;7.75;;;;;;;2.95;59.33;98761.88;4410806;32;22669;-89
2021/01/26 00:46:51;;;;;;;15.27;7.43;;;;;;;2.91;59.33;98762.78;4410589;32;26504;-88
2021/01/26 00:49:16;;;;;;;12.75;6.72;;;;;;;3.10;59.35;98760.75;4410936;32;20116;-89
2021/01/26 00:51:42;;;;;;;15.70;7.60;;;;;;;3.05;59.34;98759.97;4423638;32;20137;-89
2021/01/26 00:54:07;;;;;;;13.38;7.07;;;;;;;3.13;59.35;98759.84;4411404;32;20148;-89
2021/01/26 00:56:33;;;;;;;13.82;7.00;;;;;;;3.03;59.34;98760.00;4411057;32;20154;-89
2021/01/26 00:58:58;;;;;;;16.10;8.13;;;;;;;2.99;59.34;98760.09;4411131;32;20156;-89
2021/01/26 01:01:24;;;;;;;16.02;8.18;;;;;;;3.15;59.35;98763.25;4411170;32;20178;-89
2021/01/26 01:03:49;;;;;;;15.55;7.78;;;;;;;3.11;59.35;98764.19;4423888;32;20454;-86
2021/01/26 01:06:15;;;;;;;14.73;7.40;;;;;;;3.04;59.34;98769.41;4436575;32;20679;-88
2021/01/26 01:08:41;;;;;;;18.17;8.35;;;;;;;3.00;59.34;98765.19;4436542;32;20110;-87
2021/01/26 01:11:06;;;;;;;15.63;8.48;;;;;;;3.01;59.34;98769.47;4436318;32;20415;-87
2021/01/26 01:13:31;;;;;;;18.02;8.90;;;;;;;3.02;59.35;98771.16;4435790;32;25202;-88
2021/01/26 01:15:57;;;;;;;17.27;8.57;;;;;;;3.03;59.35;98774.56;4436110;32;21451;-88
2021/01/26 01:18:22;;;;;;;18.92;8.65;;;;;;;3.10;59.35;98771.03;4409857;32;26621;-87
2021/01/26 01:20:47;;;;;;;17.70;7.80;;;;;;;3.06;59.34;98777.09;4422965;32;21109;-87
2021/01/26 01:23:13;;;;;;;15.48;8.07;;;;;;;3.08;59.34;98783.94;4422988;32;26099;-88
2021/01/26 01:25:38;;;;;;;16.40;8.05;;;;;;;3.03;59.35;98782.28;4423592;32;20121;-88
2021/01/26 01:28:04;;;;;;;13.40;7.18;;;;;;;2.93;59.33;98781.59;4423446;32;20174;-89
2021/01/26 01:30:31;;;;;;;15.20;7.20;;;;;;;2.85;59.33;98785.19;4437769;32;20120;-88
2021/01/26 01:32:56;;;;;;;14.55;7.10;;;;;;;2.95;59.33;98792.72;4423653;32;20482;-88
2021/01/26 01:35:22;;;;;;;15.93;7.72;;;;;;;2.93;59.33;98794.47;4423675;32;20128;-88
2021/01/26 01:37:48;;;;;;;14.00;7.40;;;;;;;3.02;59.35;98791.72;4422754;32;20131;-88
2021/01/26 01:40:19;;;;;;;14.40;7.45;;;;;;;3.10;59.35;98793.34;4436124;32;20086;-87
2021/01/26 01:42:46;;;;;;;13.27;6.78;;;;;;;2.99;59.34;98804.63;4411089;32;20464;-88
2021/01/26 01:45:12;;;;;;;14.45;7.78;;;;;;;3.04;59.35;98800.25;4423264;32;20105;-87
2021/01/26 01:47:44;;;;;;;13.43;7.53;;;;;;;3.15;59.35;98812.94;4438660;32;20097;-87
2021/01/26 01:50:13;;;;;;;13.30;6.87;;;;;;;3.03;59.35;98808.00;4439328;32;20111;-88
2021/01/26 01:52:38;;;;;;;16.15;7.50;;;;;;;2.97;59.34;98803.81;4425498;32;20132;-88
2021/01/26 01:55:18;;;;;;;14.98;7.75;;;;;;;2.86;59.33;98805.72;4424674;32;20141;-87
2021/01/26 01:57:56;;;;;;;16.90;7.80;;;;;;;2.92;59.33;98812.47;4412256;32;20089;-88
2021/01/26 02:00:21;;;;;;;17.02;7.75;;;;;;;2.97;59.35;98818.38;4426305;32;20111;-87
2021/01/26 02:02:56;;;;;;;15.95;7.90;;;;;;;3.08;59.34;98819.06;4412279;32;20176;-88
2021/01/26 02:05:22;;;;;;;17.25;8.70;;;;;;;2.90;59.34;98824.50;4412448;32;20110;-87
2021/01/26 02:07:48;;;;;;;14.35;7.78;;;;;;;2.83;59.33;98828.03;4424652;32;27390;-88
2021/01/26 02:10:14;;;;;;;13.95;7.60;;;;;;;2.89;59.34;98836.50;4425447;32;20115;-87
2021/01/26 02:12:39;;;;;;;15.68;8.20;;;;;;;2.75;59.33;98841.84;4424735;32;20124;-86
2021/01/26 02:15:05;;;;;;;17.48;8.68;;;;;;;2.58;59.33;98842.97;4424948;32;20187;-89
2021/01/26 02:17:40;;;;;;;16.60;8.40;;;;;;;2.71;59.32;98847.91;4412268;32;20147;-89
2021/01/26 02:20:23;;;;;;;16.70;7.95;;;;;;;2.73;59.33;98850.47;4437838;32;20152;-89
2021/01/26 02:22:58;;;;;;;19.17;9.10;;;;;;;2.76;59.33;98848.69;4437699;32;20077;-89
2021/01/26 02:25:41;;;;;;;14.98;7.72;;;;;;;2.71;59.32;98847.91;4439048;32;20140;-88
2021/01/26 02:28:16;;;;;;;17.27;8.20;;;;;;;2.99;59.34;98853.47;4438044;32;20089;-88
2021/01/26 02:31:07;;;;;;;22.30;8.15;;;;;;;2.82;59.33;98858.00;4437802;32;20089;-88
2021/01/26 02:34:10;;;;;;;16.50;8.48;;;;;;;2.74;59.33;98858.13;4439122;32;20171;-88
2021/01/26 02:36:56;;;;;;;20.35;8.43;;;;;;;2.80;59.33;98864.06;4439356;32;20772;-88
2021/01/26 02:39:46;;;;;;;19.17;8.77;;;;;;;3.04;59.34;98869.66;4438876;32;20077;-88
2021/01/26 02:42:24;;;;;;;16.62;7.78;;;;;;;2.97;59.34;98883.50;4424582;32;20742;-88
2021/01/26 02:44:55;;;;;;;15.77;8.63;;;;;;;2.92;59.34;98875.00;4438901;32;20124;-88
2021/01/26 02:47:53;;;;;;;16.48;8.63;;;;;;;2.98;59.34;98884.34;4437484;32;20105;-87
2021/01/26 02:50:22;;;;;;;20.17;8.50;;;;;;;3.08;59.35;98876.47;4426723;32;20090;-88
2021/01/26 02:52:57;;;;;;;15.80;7.82;;;;;;;3.08;59.35;98885.91;4425008;32;20100;-88
2021/01/26 02:55:32;;;;;;;18.00;8.50;;;;;;;3.18;59.36;98882.31;4437837;32;20136;-87
2021/01/26 02:58:09;;;;;;;18.40;8.60;;;;;;;3.18;59.36;98882.31;4437104;32;20157;-88
2021/01/26 03:00:35;;;;;;;15.90;8.02;;;;;;;2.95;59.33;98880.09;4425452;32;20434;-88
2021/01/26 03:03:08;;;;;;;15.57;8.35;;;;;;;3.11;59.35;98880.72;4425295;32;20086;-88
2021/01/26 03:06:02;;;;;;;16.00;7.85;;;;;;;3.13;59.35;98884.12;4412496;32;20128;-88
2021/01/26 03:08:34;;;;;;;13.32;6.93;;;;;;;2.99;59.34;98893.75;4431902;32;20147;-88
2021/01/26 03:11:09;;;;;;;17.05;8.02;;;;;;;3.14;59.35;98895.25;4437573;32;20089;-88
2021/01/26 03:13:35;;;;;;;14.18;7.80;;;;;;;3.09;59.36;98895.34;4412545;32;20089;-88
2021/01/26 03:16:10;;;;;;;15.30;8.45;;;;;;;2.87;59.33;98897.38;4424545;32;20130;-88
2021/01/26 03:18:46;;;;;;;19.35;9.00;;;;;;;3.03;59.35;98903.13;4424706;32;20105;-87
2021/01/26 03:21:13;;;;;;;18.55;8.98;;;;;;;2.66;59.33;98910.53;4424471;32;20162;-88
2021/01/26 03:23:43;;;;;;;21.17;9.13;;;;;;;2.42;59.32;98912.53;4424809;32;20101;-88
2021/01/26 03:26:19;;;;;;;21.67;9.80;;;;;;;2.40;59.30;98910.87;4424962;32;20116;-88
2021/01/26 03:29:04;;;;;;;16.42;8.82;;;;;;;2.41;59.31;98926.25;4411815;32;20105;-88
2021/01/26 03:31:37;;;;;;;18.48;9.00;;;;;;;2.40;59.31;98931.41;4424467;32;20834;-88
2021/01/26 03:34:03;;;;;;;15.88;7.95;;;;;;;2.38;59.31;98930.59;4424692;32;20482;-88
2021/01/26 03:36:28;;;;;;;17.75;8.25;;;;;;;2.47;59.31;98921.03;4437648;32;20175;-90
2021/01/26 03:38:54;;;;;;;16.67;8.65;;;;;;;2.49;59.31;98927.88;4411879;32;20121;-89
2021/01/26 03:41:19;;;;;;;18.75;9.07;;;;;;;2.52;59.32;98933.81;4411944;32;20128;-89
2021/01/26 03:43:46;;;;;;;19.58;9.07;;;;;;;2.57;59.31;98937.16;4412009;32;20126;-89
2021/01/26 03:46:29;;;;;;;15.93;8.45;;;;;;;2.56;59.32;98940.59;4411934;32;20123;-89
2021/01/26 03:49:16;;;;;;;23.65;9.75;;;;;;;2.53;59.32;98948.34;4424718;32;20081;-89
2021/01/26 03:52:06;;;;;;;16.20;8.25;;;;;;;2.37;59.31;98950.28;4424469;32;20081;-87
2021/01/26 03:54:35;;;;;;;18.25;8.90;;;;;;;2.11;59.29;98952.25;4437134;32;20093;-88
2021/01/26 03:57:09;;;;;;;19.50;8.77;;;;;;;1.94;59.29;98952.47;4437144;32;20521;-88
2021/01/26 03:59:54;;;;;;;17.48;8.82;;;;;;;1.99;59.29;98958.41;4424449;32;20106;-88
2021/01/26 04:02:29;;;;;;;18.73;9.80;;;;;;;1.89;59.28;98956.75;4438627;32;20116;-87
2021/01/26 04:05:23;;;;;;;18.12;8.95;;;;;;;1.90;59.27;98965.34;4438517;32;20073;-87
2021/01/26 04:07:58;;;;;;;17.90;8.65;;;;;;;2.21;59.29;98956.44;4436953;32;20156;-88
2021/01/26 04:10:27;;;;;;;19.05;9.10;;;;;;;2.33;59.31;98958.00;4411612;32;20138;-87
2021/01/26 04:12:54;;;;;;;21.55;10.23;;;;;;;2.43;59.32;98960.47;4424543;32;20156;-89
2021/01/26 04:15:42;;;;;;;18.85;8.77;;;;;;;2.45;59.31;98968.16;4411670;32;20085;-88
2021/01/26 04:18:07;;;;;;;16.50;8.63;;;;;;;2.38;59.31;98963.97;4426275;32;20154;-88
2021/01/26 04:20:36;;;;;;;17.12;9.55;;;;;;;2.36;59.31;98970.81;4411470;32;20149;-89
2021/01/26 04:23:01;;;;;;;18.17;9.05;;;;;;;2.47;59.31;98982.69;4423686;32;26586;-88
2021/01/26 04:25:29;;;;;;;17.60;8.18;;;;;;;2.35;59.30;98984.53;4424052;32;20621;-88
2021/01/26 04:27:55;;;;;;;18.48;8.98;;;;;;;2.54;59.31;98980.88;4436756;32;20497;-88
2021/01/26 04:30:21;;;;;;;18.83;9.20;;;;;;;2.28;59.29;98976.06;4436970;32;20128;-88
2021/01/26 04:33:00;;;;;;;18.25;8.75;;;;;;;2.39;59.31;98983.66;4437083;32;20101;-88
2021/01/26 04:35:26;;;;;;;14.57;7.28;;;;;;;2.21;59.29;98992.41;4424950;32;20097;-87
2021/01/26 04:37:53;;;;;;;16.95;7.85;;;;;;;2.15;59.29;98992.47;4436810;32;20089;-88
2021/01/26 04:40:18;;;;;;;16.10;7.82;;;;;;;2.12;59.29;98993.31;4411373;32;20473;-88
2021/01/26 04:42:44;;;;;;;17.87;8.60;;;;;;;2.02;59.29;98999.44;4424204;32;20081;-87
2021/01/26 04:45:40;;;;;;;17.23;8.52;;;;;;;1.93;59.28;99009.78;4424075;32;20094;-88
2021/01/26 04:48:08;;;;;;;17.58;8.80;;;;;;;1.85;59.28;99004.72;4427681;32;20531;-87
2021/01/26 04:50:36;;;;;;;16.85;8.60;;;;;;;1.88;59.28;99014.09;4411381;32;20123;-88
2021/01/26 04:53:17;;;;;;;19.12;7.95;;;;;;;1.84;59.28;99017.56;4436750;32;20482;-88
2021/01/26 04:56:13;;;;;;;18.20;9.32;;;;;;;1.63;59.26;99020.28;4438220;32;20082;-88
2021/01/26 04:58:44;;;;;;;19.83;9.10;;;;;;;1.60;59.26;99028.88;4438570;32;20089;-88
2021/01/26 05:01:18;;;;;;;18.40;8.35;;;;;;;1.70;59.27;99032.22;4437973;32;20133;-88
2021/01/26 05:03:54;;;;;;;15.75;7.75;;;;;;;1.65;59.27;99031.38;4436722;32;20111;-87
2021/01/26 05:06:19;;;;;;;19.80;9.52;;;;;;;1.60;59.26;99043.41;4436507;32;20510;-87
2021/01/26 05:08:50;;;;;;;20.05;9.23;;;;;;;1.53;59.25;99048.59;4423844;32;20100;-88
2021/01/26 05:11:21;;;;;;;18.83;9.35;;;;;;;1.58;59.26;99042.56;4411271;32;20092;-87
2021/01/26 05:13:49;;;;;;;22.62;12.23;;;;;;;1.46;59.25;99046.94;4423998;32;20086;-87
2021/01/26 05:16:21;;;;;;;21.02;10.88;;;;;;;1.55;59.27;99061.41;4436602;32;20089;-88
2021/01/26 05:19:23;;;;;;;22.23;10.60;;;;;;;1.66;59.27;99054.50;4412043;32;20497;-89
2021/01/26 05:22:09;;;;;;;19.80;10.48;;;;;;;1.77;59.27;99067.22;4405264;32;20172;-90
2021/01/26 05:24:57;;;;;;;19.12;10.50;;;;;;;1.74;59.27;99064.69;4411941;32;20097;-89
2021/01/26 05:27:22;;;;;;;21.12;10.30;;;;;;;1.89;59.28;99069.69;4424048;32;20108;-90
2021/01/26 05:29:48;;;;;;;22.75;10.82;;;;;;;1.96;59.28;99067.94;4410329;32;29124;-86
2021/01/26 05:32:13;;;;;;;23.33;11.30;;;;;;;1.96;59.28;99078.22;4436317;32;20473;-87
2021/01/26 05:34:40;;;;;;;21.30;10.32;;;;;;;1.96;59.28;99088.47;4410573;32;20105;-88
2021/01/26 05:37:07;;;;;;;23.87;10.90;;;;;;;2.12;59.29;99083.16;4436219;32;20127;-88
2021/01/26 05:39:53;;;;;;;20.67;11.15;;;;;;;1.98;59.29;99092.72;4410664;32;20061;-87
2021/01/26 05:42:19;;;;;;;24.95;11.60;;;;;;;2.03;59.29;99087.53;4436836;32;20520;-88
2021/01/26 05:44:47;;;;;;;22.50;11.25;;;;;;;2.09;59.29;99090.91;4436357;32;20090;-87
2021/01/26 05:47:30;;;;;;;23.10;9.77;;;;;;;2.06;59.29;99096.06;4436312;32;20427;-87
2021/01/26 05:49:56;;;;;;;22.35;11.15;;;;;;;1.91;59.27;99090.22;4424283;32;20109;-87
2021/01/26 05:52:29;;;;;;;27.02;11.75;;;;;;;1.88;59.28;99103.91;4436250;32;20117;-87
2021/01/26 05:54:57;;;;;;;22.15;10.88;;;;;;;2.05;59.29;99106.34;4436184;32;20154;-87
2021/01/26 05:57:30;;;;;;;23.58;11.43;;;;;;;2.20;59.29;99111.38;4423519;32;20251;-87
2021/01/26 06:00:19;;;;;;;26.20;12.13;;;;;;;2.07;59.29;99118.31;4423099;32;20113;-88
2021/01/26 06:02:45;;;;;;;20.83;10.30;;;;;;;2.09;59.29;99113.16;4436149;32;20109;-87
2021/01/26 06:05:16;;;;;;;21.62;11.18;;;;;;;2.19;59.30;99125.06;4435775;32;20158;-88
2021/01/26 06:07:42;;;;;;;27.65;13.30;;;;;;;2.20;59.30;99120.78;4435998;32;20139;-88
2021/01/26 06:10:20;;;;;;;25.17;11.85;;;;;;;2.26;59.30;99125.88;4422830;32;20466;-87
2021/01/26 06:12:55;;;;;;;23.67;11.27;;;;;;;2.33;59.30;99128.34;4422970;32;20154;-87
2021/01/26 06:15:26;;;;;;;23.67;10.90;;;;;;;2.28;59.29;99129.28;4436094;32;20089;-87
2021/01/26 06:18:17;;;;;;;23.12;12.50;;;;;;;2.38;59.31;99136.03;4423378;32;20124;-87
2021/01/26 06:20:42;;;;;;;24.10;11.75;;;;;;;2.24;59.30;99133.59;4422822;32;20145;-88
2021/01/26 06:23:17;;;;;;;25.00;11.95;;;;;;;2.31;59.30;99137.78;4428774;32;20131;-90
2021/01/26 06:25:44;;;;;;;23.25;11.55;;;;;;;2.17;59.30;99141.34;4421390;32;20088;-88
2021/01/26 06:28:18;;;;;;;26.58;12.43;;;;;;;2.17;59.30;99149.06;4423039;32;20127;-90
2021/01/26 06:30:58;;;;;;;25.60;12.40;;;;;;;2.17;59.30;99154.19;4422524;32;20118;-87
2021/01/26 06:33:34;;;;;;;29.37;13.48;;;;;;;2.23;59.30;99156.72;4424347;32;20118;-88
2021/01/26 06:36:30;;;;;;;30.90;13.45;;;;;;;2.08;59.29;99162.78;4425367;32;20493;-87
2021/01/26 06:39:02;;;;;;;33.22;14.48;;;;;;;2.07;59.29;99155.97;4424798;32;20085;-88
2021/01/26 06:41:34;;;;;;;29.63;13.07;;;;;;;2.07;59.29;99161.94;4425178;32;20175;-87
2021/01/26 06:44:16;;;;;;;26.17;14.00;;;;;;;2.09;59.29;99161.94;4438869;32;20105;-87
2021/01/26 06:47:13;;;;;;;26.25;13.35;;;;;;;2.06;59.29;99174.78;4413056;32;20092;-86
2021/01/26 06:49:44;;;;;;;32.72;15.25;;;;;;;2.07;59.30;99168.78;4438842;32;20132;-89
2021/01/26 06:52:19;;;;;;;35.38;16.10;;;;;;;2.06;59.29;99172.22;4438903;32;20098;-88
2021/01/26 06:55:03;;;;;;;31.58;13.77;;;;;;;2.09;59.29;99177.34;4424806;32;20098;-88
2021/01/26 06:58:08;;;;;;;32.53;14.75;;;;;;;2.22;59.30;99183.25;4438899;32;20107;-88
2021/01/26 07:00:47;;;;;;;36.03;15.70;;;;;;;2.29;59.31;99188.31;4414070;32;20089;-88
2021/01/26 07:03:46;;;;;;;34.28;16.42;;;;;;;2.47;59.31;99188.19;4424937;32;20155;-88
2021/01/26 07:06:27;;;;;;;30.70;14.95;;;;;;;2.29;59.31;99190.88;4424603;32;20123;-88
2021/01/26 07:09:19;;;;;;;33.60;14.45;;;;;;;2.20;59.29;99185.81;4438853;32;20153;-87
2021/01/26 07:12:22;;;;;;;39.67;16.08;;;;;;;2.26;59.30;99193.47;4426457;32;20065;-88
2021/01/26 07:15:10;;;;;;;33.22;14.18;;;;;;;2.06;59.29;99197.91;4438818;32;20085;-88
2021/01/26 07:17:47;;;;;;;31.33;15.48;;;;;;;2.04;59.29;99197.06;4424884;32;20141;-87
2021/01/26 07:20:19;;;;;;;27.77;13.73;;;;;;;1.95;59.28;99204.81;4438733;32;20137;-87
2021/01/26 07:22:44;;;;;;;32.35;14.05;;;;;;;2.03;59.29;99211.59;4437292;32;20139;-87
2021/01/26 07:25:38;;;;;;;31.80;13.87;;;;;;;2.06;59.29;99203.88;4438461;32;20389;-88
2021/01/26 07:28:33;;;;;;;33.55;14.10;;;;;;;2.08;59.29;99217.56;4412247;32;20182;-88
2021/01/26 07:31:02;;;;;;;31.50;15.18;;;;;;;2.09;59.29;99224.41;4426865;32;20089;-87
2021/01/26 07:33:35;;;;;;;30.52;15.10;;;;;;;2.11;59.29;99221.81;4408131;32;20089;-88
2021/01/26 07:36:10;;;;;;;34.53;15.85;;;;;;;2.15;59.30;99229.50;4423943;32;20132;-86
2021/01/26 07:38:49;;;;;;;30.00;13.70;;;;;;;2.15;59.30;99216.69;4411181;32;20164;-87
2021/01/26 07:41:17;;;;;;;28.25;14.05;;;;;;;2.22;59.30;99224.34;4412522;32;20082;-87
2021/01/26 07:43:46;;;;;;;31.60;14.13;;;;;;;2.18;59.29;99228.63;4423230;32;20970;-87
2021/01/26 07:46:34;;;;;;;31.45;15.20;;;;;;;2.22;59.30;99225.19;4423958;32;20141;-88
2021/01/26 07:49:30;;;;;;;32.38;15.25;;;;;;;2.26;59.30;99226.00;4412062;32;20109;-87
2021/01/26 07:51:58;;;;;;;33.30;15.15;;;;;;;2.30;59.31;99230.25;4412956;32;20098;-86
2021/01/26 07:54:49;;;;;;;33.45;15.82;;;;;;;2.44;59.32;99241.28;4423575;32;20157;-87
2021/01/26 07:57:14;;;;;;;32.40;16.52;;;;;;;2.52;59.32;99249.78;4423848;32;20166;-86
2021/01/26 07:59:48;;;;;;;30.90;14.68;;;;;;;2.44;59.32;99249.00;4423055;32;33718;-87
2021/01/26 08:02:21;;;;;;;25.75;12.40;;;;;;;2.49;59.31;99251.53;4411190;32;20089;-86
2021/01/26 08:04:46;;;;;;;30.60;15.15;;;;;;;2.45;59.32;99254.13;4411346;32;20572;-87
2021/01/26 08:07:21;;;;;;;29.77;13.18;;;;;;;2.49;59.31;99254.09;4436479;32;20127;-87
2021/01/26 08:09:47;;;;;;;28.75;13.55;;;;;;;2.81;59.34;99256.41;4411118;32;20093;-87
2021/01/26 08:12:42;;;;;;;33.38;15.32;;;;;;;2.67;59.33;99262.53;4411077;32;20089;-87
2021/01/26 08:15:18;;;;;;;30.33;13.07;;;;;;;2.57;59.32;99263.44;4414093;32;20085;-87
2021/01/26 08:17:43;;;;;;;27.27;13.00;;;;;;;2.66;59.33;99265.97;4411576;32;20607;-87
2021/01/26 08:20:24;;;;;;;28.25;13.48;;;;;;;2.94;59.34;99268.28;4410996;32;20124;-87
2021/01/26 08:22:58;;;;;;;28.15;12.60;;;;;;;3.14;59.35;99266.38;4437754;32;20191;-88
2021/01/26 08:25:34;;;;;;;27.55;12.85;;;;;;;2.87;59.33;99271.78;4437127;32;20089;-86
2021/01/26 08:28:06;;;;;;;27.65;13.10;;;;;;;2.96;59.35;99271.69;4410690;32;20070;-86
2021/01/26 08:30:46;;;;;;;29.08;14.48;;;;;;;2.81;59.34;99271.81;4423754;32;20120;-86
2021/01/26 08:33:19;;;;;;;26.40;13.73;;;;;;;3.17;59.34;99278.38;4437930;32;20085;-86
2021/01/26 08:35:47;;;;;;;31.62;14.73;;;;;;;2.91;59.33;99273.47;4423553;32;20093;-86
2021/01/26 08:38:49;;;;;;;29.33;13.25;;;;;;;3.15;59.35;99280.94;4423476;32;20398;-86
2021/01/26 08:41:33;;;;;;;25.60;13.68;;;;;;;3.11;59.35;99270.72;4433359;32;20157;-85
2021/01/26 08:43:58;;;;;;;28.12;12.55;;;;;;;3.26;59.36;99279.13;4437452;32;20816;-87
2021/01/26 08:46:40;;;;;;;29.10;13.32;;;;;;;3.30;59.35;99280.78;4422779;32;32651;-86
2021/01/26 08:49:31;;;;;;;29.08;13.40;;;;;;;3.20;59.36;99289.47;4411328;32;20109;-86
2021/01/26 08:52:22;;;;;;;25.95;13.05;;;;;;;3.17;59.36;99286.94;4423622;32;20145;-86
2021/01/26 08:54:52;;;;;;;30.20;13.35;;;;;;;3.30;59.35;99285.91;4437332;32;20094;-86
2021/01/26 08:57:26;;;;;;;26.40;12.85;;;;;;;3.21;59.35;99287.75;4411011;32;20077;-87
2021/01/26 08:59:51;;;;;;;31.58;13.35;;;;;;;3.36;59.36;99295.31;4437629;32;20158;-87
2021/01/26 09:02:38;;;;;;;27.33;12.93;;;;;;;3.24;59.36;99298.84;4410553;32;20493;-87
2021/01/26 09:05:04;;;;;;;27.27;12.20;;;;;;;3.50;59.37;99305.44;4423703;32;20097;-87
2021/01/26 09:07:54;;;;;;;28.98;14.07;;;;;;;3.55;59.38;99295.97;4410899;32;20175;-87
2021/01/26 09:10:25;;;;;;;25.90;13.00;;;;;;;3.29;59.35;99309.94;4422988;32;20124;-86
2021/01/26 09:12:52;;;;;;;25.00;11.77;;;;;;;3.56;59.37;99310.56;4437586;32;20466;-87
2021/01/26 09:15:18;;;;;;;26.83;12.13;;;;;;;3.63;59.38;99312.19;4410783;32;20146;-86
2021/01/26 09:17:43;;;;;;;27.00;12.32;;;;;;;3.52;59.37;99307.13;4410794;32;20145;-87
2021/01/26 09:20:23;;;;;;;22.60;11.80;;;;;;;3.77;59.39;99307.72;4437472;32;20128;-88
2021/01/26 09:22:48;;;;;;;18.65;10.38;;;;;;;4.01;59.40;99309.13;4410766;32;20124;-87
2021/01/26 09:25:18;;;;;;;26.30;12.00;;;;;;;4.10;59.40;99308.19;4410136;32;24683;-87
2021/01/26 09:27:43;;;;;;;22.60;11.60;;;;;;;4.00;59.40;99307.44;4410819;32;20085;-87
2021/01/26 09:30:15;;;;;;;26.95;11.15;;;;;;;4.14;59.41;99302.97;4409745;32;38095;-88
2021/01/26 09:32:43;;;;;;;25.40;12.05;;;;;;;4.24;59.41;99304.53;4437427;32;20098;-87
2021/01/26 09:35:42;;;;;;;24.58;12.05;;;;;;;4.48;59.42;99311.06;4410453;32;20093;-87
2021/01/26 09:38:10;;;;;;;19.98;10.57;;;;;;;4.65;59.44;99310.84;4411364;32;20074;-86
2021/01/26 09:40:37;;;;;;;21.95;11.10;;;;;;;4.80;59.45;99323.50;4422127;32;20125;-88
2021/01/26 09:43:10;;;;;;;22.20;11.48;;;;;;;4.63;59.43;99326.31;4410414;32;20167;-85
2021/01/26 09:45:36;;;;;;;23.05;11.00;;;;;;;4.52;59.43;99325.66;4409835;32;20111;-88
2021/01/26 09:48:02;;;;;;;21.52;11.07;;;;;;;4.14;59.41;99327.88;4422103;32;20148;-86
2021/01/26 09:50:28;;;;;;;19.37;10.88;;;;;;;4.10;59.40;99329.66;4422046;32;20139;-86
2021/01/26 09:53:02;;;;;;;22.25;11.45;;;;;;;3.92;59.40;99329.87;4409617;32;20106;-86
2021/01/26 09:55:28;;;;;;;22.48;11.10;;;;;;;3.71;59.39;99341.25;4409554;32;20527;-87
2021/01/26 09:57:57;;;;;;;24.85;12.20;;;;;;;3.82;59.39;99341.16;4409473;32;20152;-86
2021/01/26 10:00:23;;;;;;;26.33;11.65;;;;;;;3.89;59.39;99337.63;4409773;32;20438;-88
2021/01/26 10:02:59;;;;;;;19.45;9.82;;;;;;;4.12;59.40;99337.34;4409676;32;20109;-88
2021/01/26 10:05:26;;;;;;;21.50;11.32;;;;;;;4.32;59.41;99340.53;4409698;32;20115;-88
2021/01/26 10:08:11;;;;;;;18.25;10.07;;;;;;;4.32;59.41;99327.66;4410135;32;20152;-87
2021/01/26 10:10:37;;;;;;;22.23;9.70;;;;;;;4.14;59.41;99330.44;4411616;32;20098;-87
2021/01/26 10:13:26;;;;;;;19.25;10.48;;;;;;;4.11;59.40;99336.50;4423300;32;20131;-86
2021/01/26 10:15:52;;;;;;;20.43;10.13;;;;;;;4.12;59.40;99324.47;4423685;32;20116;-86
2021/01/26 10:18:19;;;;;;;19.85;9.80;;;;;;;4.32;59.41;99325.91;4436457;32;20113;-87
2021/01/26 10:20:45;;;;;;;20.00;10.27;;;;;;;4.46;59.42;99327.44;4411369;32;20097;-86
2021/01/26 10:23:15;;;;;;;20.15;9.77;;;;;;;4.42;59.43;99324.06;4423733;32;20155;-87
2021/01/26 10:25:42;;;;;;;18.20;9.23;;;;;;;4.60;59.44;99317.78;4411024;32;20885;-87
2021/01/26 10:28:24;;;;;;;19.75;10.48;;;;;;;4.51;59.43;99325.66;4423931;32;20163;-86
2021/01/26 10:30:50;;;;;;;18.17;9.02;;;;;;;4.71;59.43;99318.47;4437853;32;20552;-87
2021/01/26 10:33:42;;;;;;;17.12;9.13;;;;;;;4.65;59.44;99334.03;4423830;32;20120;-87
2021/01/26 10:36:33;;;;;;;19.23;9.20;;;;;;;4.77;59.44;99318.41;4421755;32;20085;-87
2021/01/26 10:39:29;;;;;;;19.58;10.07;;;;;;;4.69;59.44;99330.53;4410671;32;20109;-87
2021/01/26 10:42:27;;;;;;;20.73;10.50;;;;;;;4.90;59.45;99313.88;4424134;32;20106;-87
2021/01/26 10:44:53;;;;;;;24.08;9.88;;;;;;;4.88;59.45;99325.94;4435746;32;20123;-87
2021/01/26 10:47:32;;;;;;;19.08;9.95;;;;;;;4.58;59.43;99330.69;4411367;32;20571;-88
2021/01/26 10:49:59;;;;;;;18.80;10.37;;;;;;;4.73;59.44;99336.50;4412385;32;20094;-89
2021/01/26 10:52:46;;;;;;;21.05;10.25;;;;;;;4.91;59.45;99336.22;4410769;32;20102;-87
2021/01/26 10:55:14;;;;;;;25.17;9.75;;;;;;;5.24;59.47;99335.69;4436905;32;20608;-88
2021/01/26 10:57:40;;;;;;;20.08;10.38;;;;;;;5.31;59.48;99339.00;4438173;32;20097;-86
2021/01/26 11:00:06;;;;;;;24.42;10.40;;;;;;;5.04;59.45;99348.06;4423658;32;20139;-88
2021/01/26 11:02:32;;;;;;;23.80;13.05;;;;;;;5.18;59.47;99340.06;4423749;32;20097;-87
2021/01/26 11:04:58;;;;;;;20.50;9.68;;;;;;;5.37;59.48;99331.13;4423864;32;20128;-88
2021/01/26 11:07:23;;;;;;;19.73;9.55;;;;;;;5.47;59.48;99335.28;4410643;32;20109;-87
2021/01/26 11:09:49;;;;;;;17.20;9.52;;;;;;;5.48;59.48;99333.53;4435594;32;26367;-87
2021/01/26 11:12:20;;;;;;;22.17;9.40;;;;;;;5.43;59.48;99343.94;4410515;32;20439;-86
2021/01/26 11:14:47;;;;;;;19.10;9.65;;;;;;;5.34;59.47;99343.25;4411549;32;20121;-87
2021/01/26 11:17:13;;;;;;;16.15;8.18;;;;;;;5.46;59.48;99335.31;4437343;32;20082;-87
2021/01/26 11:19:38;;;;;;;18.90;7.55;;;;;;;5.60;59.48;99329.87;4410573;32;20139;-86
2021/01/26 11:22:04;;;;;;;18.00;8.25;;;;;;;5.07;59.46;99326.50;4410730;32;20454;-88
2021/01/26 11:24:29;;;;;;;14.35;7.57;;;;;;;5.24;59.46;99340.00;4410751;32;20133;-87
2021/01/26 11:26:55;;;;;;;14.30;8.82;;;;;;;5.16;59.47;99342.69;4410829;32;20184;-87
2021/01/26 11:29:20;;;;;;;16.12;9.55;;;;;;;5.27;59.48;99336.50;4410274;32;31648;-88
2021/01/26 11:31:46;;;;;;;17.33;9.07;;;;;;;5.51;59.48;99333.50;4411020;32;20127;-87
2021/01/26 11:34:11;;;;;;;14.27;7.32;;;;;;;5.66;59.49;99338.34;4423483;32;20113;-86
2021/01/26 11:36:37;;;;;;;16.15;9.02;;;;;;;5.46;59.49;99331.00;4410634;32;20120;-87
2021/01/26 11:39:02;;;;;;;18.25;8.95;;;;;;;5.36;59.47;99344.06;4436186;32;34350;-87
2021/01/26 11:41:28;;;;;;;15.02;8.15;;;;;;;5.30;59.47;99333.88;4423199;32;20121;-87
2021/01/26 11:43:53;;;;;;;15.07;7.93;;;;;;;5.06;59.46;99338.56;4409836;32;29315;-89
2021/01/26 11:46:19;;;;;;;14.45;7.70;;;;;;;5.02;59.46;99323.16;4410386;32;20455;-87
2021/01/26 11:48:44;;;;;;;15.68;8.00;;;;;;;5.07;59.46;99344.56;4410409;32;20109;-86
2021/01/26 11:51:10;;;;;;;16.50;8.10;;;;;;;5.28;59.47;99341.62;4410725;32;20163;-88
2021/01/26 11:53:35;;;;;;;15.43;8.55;;;;;;;5.42;59.48;99341.38;4423752;32;20157;-87
2021/01/26 11:56:00;;;;;;;18.87;8.80;;;;;;;5.58;59.48;99344.53;4410208;32;26905;-87